Ever Diamond — 3FQS8 — position and weather

sailwx.info

Track history (hours):
 
Tides and Currents Weather Stations Pressure Air Temp Water Temp Dewpoint Dewpoint Depression Visibility Wind Speed Wind Dir Waves Ship Positions

Ever Diamond

Last reported at 2014-Oct-16 13:05 UTC. Time now 2014-Oct-25 20:35 UTC.
Position N 38°49' W 073°59'.
Warning: this ship's position is 9 days out of date.

Type: Ship (hazmat cat D). MMSI: 354893000.

Date/timePositionNaut miles runAvg speedWind from/ knotsBaromVisibWave heightAir tempDewpointWater temp
2014-Oct-16 13:05N 38°49' W 073°59'3713.9
2014-Oct-16 10:26N 39°25' W 073°56'1213.5
2014-Oct-16 09:33N 39°37' W 073°54'1313.3
2014-Oct-16 08:34N 39°50' W 073°52'1413.6
2014-Oct-16 07:33N 40°04' W 073°51'1413.8
2014-Oct-16 06:33N 40°18' W 073°49'10 9.8
2014-Oct-16 05:34N 40°27' W 073°51'1313.2
2014-Oct-16 04:33N 40°37' W 074°03'5 5.1
2014-Oct-16 03:33N 40°40' W 074°08'1 0.3
2014-Oct-16 00:16N 40°41' W 074°09'0 0.0
2014-Oct-15 18:10N 40°41' W 074°09'0 0.0
2014-Oct-15 15:07N 40°41' W 074°09'0 0.0
2014-Oct-15 14:11N 40°41' W 074°09'1 1.2
2014-Oct-15 13:32N 40°40' W 074°08'5 4.6
2014-Oct-15 12:33N 40°38' W 074°03'1111.3
2014-Oct-15 11:33N 40°29' W 073°54'1110.8
2014-Oct-15 10:33N 40°21' W 073°45'0 0.4
2014-Oct-15 09:33N 40°21' W 073°44'9 9.4
2014-Oct-15 08:33N 40°11' W 073°44'1514.5
2014-Oct-15 07:33N 39°57' W 073°42'1514.6
2014-Oct-15 06:33N 39°43' W 073°40'1514.7
2014-Oct-15 05:33N 39°28' W 073°40'1514.8
2014-Oct-15 04:33N 39°13' W 073°40'1414.4
2014-Oct-15 03:33N 38°59' W 073°41'1514.7
2014-Oct-15 02:33N 38°46' W 073°52'1515.1
2014-Oct-15 01:33N 38°34' W 074°02'1514.9
2014-Oct-15 00:33N 38°21' W 074°13'1514.7
2014-Oct-14 23:33N 38°09' W 074°23'1714.6
2014-Oct-14 22:25N 37°55' W 074°35'1414.6
2014-Oct-14 21:26N 37°43' W 074°45'7911.5
2014-Oct-14 14:33N 36°59' W 076°07'1010.3
2014-Oct-14 13:32N 36°57' W 076°20'4 3.9
2014-Oct-14 12:29N 36°53' W 076°21'0 0.0
2014-Oct-14 11:15N 36°53' W 076°21'0 0.0
2014-Oct-14 10:09N 36°53' W 076°21'0 0.0
2014-Oct-14 09:09N 36°53' W 076°21'0 0.0
2014-Oct-14 08:15N 36°53' W 076°21'0 0.0
2014-Oct-14 06:12N 36°53' W 076°21'0 0.0
2014-Oct-14 05:24N 36°53' W 076°21'0 0.0
2014-Oct-14 04:33N 36°53' W 076°21'0 0.0
2014-Oct-14 03:23N 36°53' W 076°21'1 0.9
2014-Oct-14 02:33N 36°53' W 076°20'9 9.0
2014-Oct-14 01:33N 37°00' W 076°14'1111.4
2014-Oct-14 00:33N 36°58' W 075°60'1615.3
2014-Oct-13 23:31N 37°12' W 076°09'8817.6
2014-Oct-13 18:32N 38°39' W 076°25'1818.0
2014-Oct-13 17:33N 38°57' W 076°23'1413.9
2014-Oct-13 16:33N 39°10' W 076°26'7 7.2
2014-Oct-13 15:33N 39°15' W 076°33'0 0.0
2014-Oct-13 14:32N 39°15' W 076°33'0 0.0
2014-Oct-13 13:32N 39°15' W 076°33'0 0.0
2014-Oct-13 12:32N 39°15' W 076°33'0 0.0
2014-Oct-13 11:32N 39°15' W 076°33'0 0.0
2014-Oct-13 10:32N 39°15' W 076°33'0 0.0
2014-Oct-13 09:32N 39°15' W 076°33'0 0.0
2014-Oct-13 08:32N 39°15' W 076°33'0 0.0
2014-Oct-13 07:33N 39°15' W 076°33'0 0.0
2014-Oct-13 06:32N 39°15' W 076°33'0 0.0
2014-Oct-13 05:33N 39°15' W 076°33'0 0.0
2014-Oct-13 04:33N 39°15' W 076°33'0 0.0
2014-Oct-13 03:33N 39°15' W 076°33'0 0.0
2014-Oct-13 02:32N 39°15' W 076°33'0 0.0
2014-Oct-13 01:32N 39°15' W 076°33'0 0.0
2014-Oct-13 00:32N 39°15' W 076°33'0 0.0
2014-Oct-12 23:32N 39°15' W 076°33'0 0.0
2014-Oct-12 22:32N 39°15' W 076°33'1 0.9
2014-Oct-12 21:33N 39°15' W 076°33'7 7.1
2014-Oct-12 20:33N 39°10' W 076°25'1211.8
2014-Oct-12 19:33N 38°58' W 076°23'1615.7
2014-Oct-12 18:32N 38°42' W 076°26'25815.1
2014-Oct-12 01:28N 34°27' W 075°42'2118.4
2014-Oct-12 00:20N 34°13' W 075°60'1519.1
2014-Oct-11 23:33N 34°02' W 076°13'2119.2
2014-Oct-11 22:27N 33°48' W 076°32'1918.1
2014-Oct-11 21:24N 33°34' W 076°48'1617.8
2014-Oct-11 20:30N 33°24' W 077°03'3517.8
2014-Oct-11 18:33N 33°11' W 077°41'7918.1
2014-Oct-11 14:12N 32°42' W 079°08'2816.3
2014-Oct-11 12:28N 32°40' W 079°42'1512.3
2014-Oct-11 11:13N 32°50' W 079°56'5 7.2
2014-Oct-11 10:33N 32°54' W 079°58'0 0.1
2014-Oct-11 09:19N 32°54' W 079°58'  
Track history (hours):
 
Tides and Currents Weather Stations Pressure Air Temp Water Temp Dewpoint Dewpoint Depression Visibility Wind Speed Wind Dir Waves Ship Positions

Ever Diamond

Last reported at 2014-Oct-16 13:05 UTC. Time now 2014-Oct-25 20:35 UTC.
Position N 38°49' W 073°59'.
Warning: this ship's position is 9 days out of date.

Type: Ship (hazmat cat D). MMSI: 354893000.

Date/timePositionNaut miles runAvg speedWind from/ knotsBaromVisibWave heightAir tempDewpointWater temp
2014-Oct-16 13:05N 38°49' W 073°59'3713.9
2014-Oct-16 10:26N 39°25' W 073°56'1213.5
2014-Oct-16 09:33N 39°37' W 073°54'1313.3
2014-Oct-16 08:34N 39°50' W 073°52'1413.6
2014-Oct-16 07:33N 40°04' W 073°51'1413.8
2014-Oct-16 06:33N 40°18' W 073°49'10 9.8
2014-Oct-16 05:34N 40°27' W 073°51'1313.2
2014-Oct-16 04:33N 40°37' W 074°03'5 5.1
2014-Oct-16 03:33N 40°40' W 074°08'1 0.3
2014-Oct-16 00:16N 40°41' W 074°09'0 0.0
2014-Oct-15 18:10N 40°41' W 074°09'0 0.0
2014-Oct-15 15:07N 40°41' W 074°09'0 0.0
2014-Oct-15 14:11N 40°41' W 074°09'1 1.2
2014-Oct-15 13:32N 40°40' W 074°08'5 4.6
2014-Oct-15 12:33N 40°38' W 074°03'1111.3
2014-Oct-15 11:33N 40°29' W 073°54'1110.8
2014-Oct-15 10:33N 40°21' W 073°45'0 0.4
2014-Oct-15 09:33N 40°21' W 073°44'9 9.4
2014-Oct-15 08:33N 40°11' W 073°44'1514.5
2014-Oct-15 07:33N 39°57' W 073°42'1514.6
2014-Oct-15 06:33N 39°43' W 073°40'1514.7
2014-Oct-15 05:33N 39°28' W 073°40'1514.8
2014-Oct-15 04:33N 39°13' W 073°40'1414.4
2014-Oct-15 03:33N 38°59' W 073°41'1514.7
2014-Oct-15 02:33N 38°46' W 073°52'1515.1
2014-Oct-15 01:33N 38°34' W 074°02'1514.9
2014-Oct-15 00:33N 38°21' W 074°13'1514.7
2014-Oct-14 23:33N 38°09' W 074°23'1714.6
2014-Oct-14 22:25N 37°55' W 074°35'1414.6
2014-Oct-14 21:26N 37°43' W 074°45'7911.5
2014-Oct-14 14:33N 36°59' W 076°07'1010.3
2014-Oct-14 13:32N 36°57' W 076°20'4 3.9
2014-Oct-14 12:29N 36°53' W 076°21'0 0.0
2014-Oct-14 11:15N 36°53' W 076°21'0 0.0
2014-Oct-14 10:09N 36°53' W 076°21'0 0.0
2014-Oct-14 09:09N 36°53' W 076°21'0 0.0
2014-Oct-14 08:15N 36°53' W 076°21'0 0.0
2014-Oct-14 06:12N 36°53' W 076°21'0 0.0
2014-Oct-14 05:24N 36°53' W 076°21'0 0.0
2014-Oct-14 04:33N 36°53' W 076°21'0 0.0
2014-Oct-14 03:23N 36°53' W 076°21'1 0.9
2014-Oct-14 02:33N 36°53' W 076°20'9 9.0
2014-Oct-14 01:33N 37°00' W 076°14'1111.4
2014-Oct-14 00:33N 36°58' W 075°60'1615.3
2014-Oct-13 23:31N 37°12' W 076°09'8817.6
2014-Oct-13 18:32N 38°39' W 076°25'1818.0
2014-Oct-13 17:33N 38°57' W 076°23'1413.9
2014-Oct-13 16:33N 39°10' W 076°26'7 7.2
2014-Oct-13 15:33N 39°15' W 076°33'0 0.0
2014-Oct-13 14:32N 39°15' W 076°33'0 0.0
2014-Oct-13 13:32N 39°15' W 076°33'0 0.0
2014-Oct-13 12:32N 39°15' W 076°33'0 0.0
2014-Oct-13 11:32N 39°15' W 076°33'0 0.0
2014-Oct-13 10:32N 39°15' W 076°33'0 0.0
2014-Oct-13 09:32N 39°15' W 076°33'0 0.0
2014-Oct-13 08:32N 39°15' W 076°33'0 0.0
2014-Oct-13 07:33N 39°15' W 076°33'0 0.0
2014-Oct-13 06:32N 39°15' W 076°33'0 0.0
2014-Oct-13 05:33N 39°15' W 076°33'0 0.0
2014-Oct-13 04:33N 39°15' W 076°33'0 0.0
2014-Oct-13 03:33N 39°15' W 076°33'0 0.0
2014-Oct-13 02:32N 39°15' W 076°33'0 0.0
2014-Oct-13 01:32N 39°15' W 076°33'0 0.0
2014-Oct-13 00:32N 39°15' W 076°33'0 0.0
2014-Oct-12 23:32N 39°15' W 076°33'0 0.0
2014-Oct-12 22:32N 39°15' W 076°33'1 0.9
2014-Oct-12 21:33N 39°15' W 076°33'7 7.1
2014-Oct-12 20:33N 39°10' W 076°25'1211.8
2014-Oct-12 19:33N 38°58' W 076°23'1615.7
2014-Oct-12 18:32N 38°42' W 076°26'25815.1
2014-Oct-12 01:28N 34°27' W 075°42'2118.4
2014-Oct-12 00:20N 34°13' W 075°60'1519.1
2014-Oct-11 23:33N 34°02' W 076°13'2119.2
2014-Oct-11 22:27N 33°48' W 076°32'1918.1
2014-Oct-11 21:24N 33°34' W 076°48'1617.8
2014-Oct-11 20:30N 33°24' W 077°03'3517.8
2014-Oct-11 18:33N 33°11' W 077°41'7918.1
2014-Oct-11 14:12N 32°42' W 079°08'2816.3
2014-Oct-11 12:28N 32°40' W 079°42'1512.3
2014-Oct-11 11:13N 32°50' W 079°56'5 7.2
2014-Oct-11 10:33N 32°54' W 079°58'0 0.1
2014-Oct-11 09:19N 32°54' W 079°58'  

Dump ship's entire track history